sensor_id;sensor_type;location;lat;lon;timestamp;temperature;humidity
46139;DHT22;32398;49.112;8.598;2023-09-08T00:00:24;22.60;66.40
46139;DHT22;32398;49.112;8.598;2023-09-08T00:02:51;22.60;66.50
46139;DHT22;32398;49.112;8.598;2023-09-08T00:05:18;22.50;66.50
46139;DHT22;32398;49.112;8.598;2023-09-08T00:07:46;22.50;66.60
46139;DHT22;32398;49.112;8.598;2023-09-08T00:10:12;22.50;66.60
46139;DHT22;32398;49.112;8.598;2023-09-08T00:12:39;22.40;66.80
46139;DHT22;32398;49.112;8.598;2023-09-08T00:15:06;22.40;66.80
46139;DHT22;32398;49.112;8.598;2023-09-08T00:17:33;22.40;66.90
46139;DHT22;32398;49.112;8.598;2023-09-08T00:19:59;22.30;67.00
46139;DHT22;32398;49.112;8.598;2023-09-08T00:22:26;22.30;66.90
46139;DHT22;32398;49.112;8.598;2023-09-08T00:24:54;22.30;67.10
46139;DHT22;32398;49.112;8.598;2023-09-08T00:27:21;22.20;67.00
46139;DHT22;32398;49.112;8.598;2023-09-08T00:29:48;22.20;67.00
46139;DHT22;32398;49.112;8.598;2023-09-08T00:32:14;22.20;67.10
46139;DHT22;32398;49.112;8.598;2023-09-08T00:34:41;22.10;67.20
46139;DHT22;32398;49.112;8.598;2023-09-08T00:37:08;22.10;67.30
46139;DHT22;32398;49.112;8.598;2023-09-08T00:39:35;22.10;67.50
46139;DHT22;32398;49.112;8.598;2023-09-08T00:42:03;22.00;67.50
46139;DHT22;32398;49.112;8.598;2023-09-08T00:44:30;22.00;67.50
46139;DHT22;32398;49.112;8.598;2023-09-08T00:46:56;22.00;67.60
46139;DHT22;32398;49.112;8.598;2023-09-08T00:49:23;22.00;67.70
46139;DHT22;32398;49.112;8.598;2023-09-08T00:51:50;21.90;67.70
46139;DHT22;32398;49.112;8.598;2023-09-08T00:54:17;21.90;67.80
46139;DHT22;32398;49.112;8.598;2023-09-08T00:56:44;21.80;67.80
46139;DHT22;32398;49.112;8.598;2023-09-08T00:59:13;21.80;68.00
46139;DHT22;32398;49.112;8.598;2023-09-08T01:01:40;21.80;68.10
46139;DHT22;32398;49.112;8.598;2023-09-08T01:04:06;21.80;68.10
46139;DHT22;32398;49.112;8.598;2023-09-08T01:06:33;21.80;68.20
46139;DHT22;32398;49.112;8.598;2023-09-08T01:09:00;21.70;68.20
46139;DHT22;32398;49.112;8.598;2023-09-08T01:11:27;21.70;68.30
46139;DHT22;32398;49.112;8.598;2023-09-08T01:13:55;21.60;68.30
46139;DHT22;32398;49.112;8.598;2023-09-08T01:16:23;21.60;68.40
46139;DHT22;32398;49.112;8.598;2023-09-08T01:18:50;21.60;68.40
46139;DHT22;32398;49.112;8.598;2023-09-08T01:21:22;21.60;68.50
46139;DHT22;32398;49.112;8.598;2023-09-08T01:23:57;21.50;68.60
46139;DHT22;32398;49.112;8.598;2023-09-08T01:26:27;21.50;68.60
46139;DHT22;32398;49.112;8.598;2023-09-08T01:28:56;21.50;68.70
46139;DHT22;32398;49.112;8.598;2023-09-08T01:31:23;21.40;68.80
46139;DHT22;32398;49.112;8.598;2023-09-08T01:33:50;21.40;68.70
46139;DHT22;32398;49.112;8.598;2023-09-08T01:36:17;21.40;68.80
46139;DHT22;32398;49.112;8.598;2023-09-08T01:38:44;21.40;69.00
46139;DHT22;32398;49.112;8.598;2023-09-08T01:41:10;21.30;69.00
46139;DHT22;32398;49.112;8.598;2023-09-08T01:43:39;21.30;69.10
46139;DHT22;32398;49.112;8.598;2023-09-08T01:46:05;21.30;69.10
46139;DHT22;32398;49.112;8.598;2023-09-08T01:48:32;21.30;69.20
46139;DHT22;32398;49.112;8.598;2023-09-08T01:50:59;21.20;69.20
46139;DHT22;32398;49.112;8.598;2023-09-08T01:53:25;21.20;69.40
46139;DHT22;32398;49.112;8.598;2023-09-08T01:55:52;21.10;69.50
46139;DHT22;32398;49.112;8.598;2023-09-08T01:58:18;21.10;69.40
46139;DHT22;32398;49.112;8.598;2023-09-08T02:00:51;21.10;69.40
46139;DHT22;32398;49.112;8.598;2023-09-08T02:03:20;21.10;69.50
46139;DHT22;32398;49.112;8.598;2023-09-08T02:05:46;21.00;69.50
46139;DHT22;32398;49.112;8.598;2023-09-08T02:08:13;21.00;69.60
46139;DHT22;32398;49.112;8.598;2023-09-08T02:10:40;21.00;69.60
46139;DHT22;32398;49.112;8.598;2023-09-08T02:13:06;20.90;69.70
46139;DHT22;32398;49.112;8.598;2023-09-08T02:15:34;20.90;69.70
46139;DHT22;32398;49.112;8.598;2023-09-08T02:18:02;20.90;69.80
46139;DHT22;32398;49.112;8.598;2023-09-08T02:20:29;20.80;69.70
46139;DHT22;32398;49.112;8.598;2023-09-08T02:22:56;20.80;69.90
46139;DHT22;32398;49.112;8.598;2023-09-08T02:25:23;20.80;69.80
46139;DHT22;32398;49.112;8.598;2023-09-08T02:27:50;20.80;70.00
46139;DHT22;32398;49.112;8.598;2023-09-08T02:30:17;20.70;70.00
46139;DHT22;32398;49.112;8.598;2023-09-08T02:32:43;20.70;70.00
46139;DHT22;32398;49.112;8.598;2023-09-08T02:35:12;20.70;70.10
46139;DHT22;32398;49.112;8.598;2023-09-08T02:37:39;20.70;70.20
46139;DHT22;32398;49.112;8.598;2023-09-08T02:40:06;20.70;70.20
46139;DHT22;32398;49.112;8.598;2023-09-08T02:42:33;20.60;70.20
46139;DHT22;32398;49.112;8.598;2023-09-08T02:44:59;20.60;70.20
46139;DHT22;32398;49.112;8.598;2023-09-08T02:47:26;20.60;70.30
46139;DHT22;32398;49.112;8.598;2023-09-08T02:49:53;20.60;70.40
46139;DHT22;32398;49.112;8.598;2023-09-08T02:52:21;20.50;70.30
46139;DHT22;32398;49.112;8.598;2023-09-08T03:00:54;20.50;70.50
46139;DHT22;32398;49.112;8.598;2023-09-08T03:03:21;20.50;70.50
46139;DHT22;32398;49.112;8.598;2023-09-08T03:05:48;20.40;70.60
46139;DHT22;32398;49.112;8.598;2023-09-08T03:08:21;20.40;70.50
46139;DHT22;32398;49.112;8.598;2023-09-08T03:10:49;20.40;70.60
46139;DHT22;32398;49.112;8.598;2023-09-08T03:13:15;20.40;70.70
46139;DHT22;32398;49.112;8.598;2023-09-08T03:15:42;20.30;70.60
46139;DHT22;32398;49.112;8.598;2023-09-08T03:18:09;20.30;70.70
46139;DHT22;32398;49.112;8.598;2023-09-08T03:20:36;20.30;70.80
46139;DHT22;32398;49.112;8.598;2023-09-08T03:23:03;20.30;70.80
46139;DHT22;32398;49.112;8.598;2023-09-08T03:25:31;20.30;70.90
46139;DHT22;32398;49.112;8.598;2023-09-08T03:27:58;20.30;70.90
46139;DHT22;32398;49.112;8.598;2023-09-08T03:30:24;20.20;70.80
46139;DHT22;32398;49.112;8.598;2023-09-08T03:32:51;20.20;70.90
46139;DHT22;32398;49.112;8.598;2023-09-08T03:35:18;20.20;70.90
46139;DHT22;32398;49.112;8.598;2023-09-08T03:37:44;20.10;71.00
46139;DHT22;32398;49.112;8.598;2023-09-08T03:40:11;20.20;71.10
46139;DHT22;32398;49.112;8.598;2023-09-08T03:42:39;20.10;71.00
46139;DHT22;32398;49.112;8.598;2023-09-08T03:45:07;20.10;71.00
46139;DHT22;32398;49.112;8.598;2023-09-08T03:47:35;20.10;71.10
46139;DHT22;32398;49.112;8.598;2023-09-08T03:50:05;20.10;71.10
46139;DHT22;32398;49.112;8.598;2023-09-08T03:52:32;20.00;71.10
46139;DHT22;32398;49.112;8.598;2023-09-08T03:54:59;20.00;71.10
46139;DHT22;32398;49.112;8.598;2023-09-08T03:57:28;20.00;71.20
46139;DHT22;32398;49.112;8.598;2023-09-08T03:59:56;19.90;71.10
46139;DHT22;32398;49.112;8.598;2023-09-08T04:02:23;20.00;71.30
46139;DHT22;32398;49.112;8.598;2023-09-08T04:04:50;19.90;71.30
46139;DHT22;32398;49.112;8.598;2023-09-08T04:07:16;19.90;71.30
46139;DHT22;32398;49.112;8.598;2023-09-08T04:09:47;19.90;71.40
46139;DHT22;32398;49.112;8.598;2023-09-08T04:12:14;19.90;71.40
46139;DHT22;32398;49.112;8.598;2023-09-08T04:14:41;19.90;71.50
46139;DHT22;32398;49.112;8.598;2023-09-08T04:17:09;19.80;71.50
46139;DHT22;32398;49.112;8.598;2023-09-08T04:19:35;19.80;71.50
46139;DHT22;32398;49.112;8.598;2023-09-08T04:22:02;19.80;71.60
46139;DHT22;32398;49.112;8.598;2023-09-08T04:24:29;19.70;71.50
46139;DHT22;32398;49.112;8.598;2023-09-08T04:26:56;19.70;71.60
46139;DHT22;32398;49.112;8.598;2023-09-08T04:29:22;19.70;71.60
46139;DHT22;32398;49.112;8.598;2023-09-08T04:31:49;19.70;71.80
46139;DHT22;32398;49.112;8.598;2023-09-08T04:34:17;19.70;71.70
46139;DHT22;32398;49.112;8.598;2023-09-08T04:36:45;19.60;71.70
46139;DHT22;32398;49.112;8.598;2023-09-08T04:39:11;19.60;71.80
46139;DHT22;32398;49.112;8.598;2023-09-08T04:41:40;19.60;71.90
46139;DHT22;32398;49.112;8.598;2023-09-08T04:44:09;19.60;71.90
46139;DHT22;32398;49.112;8.598;2023-09-08T04:46:36;19.60;71.90
46139;DHT22;32398;49.112;8.598;2023-09-08T04:49:03;19.50;71.90
46139;DHT22;32398;49.112;8.598;2023-09-08T04:51:31;19.50;71.90
46139;DHT22;32398;49.112;8.598;2023-09-08T04:53:58;19.50;72.00
46139;DHT22;32398;49.112;8.598;2023-09-08T04:56:26;19.50;72.10
46139;DHT22;32398;49.112;8.598;2023-09-08T04:58:52;19.40;72.10
46139;DHT22;32398;49.112;8.598;2023-09-08T05:01:20;19.40;72.10
46139;DHT22;32398;49.112;8.598;2023-09-08T05:03:47;19.40;72.20
46139;DHT22;32398;49.112;8.598;2023-09-08T05:06:15;19.40;72.30
46139;DHT22;32398;49.112;8.598;2023-09-08T05:08:44;19.40;72.30
46139;DHT22;32398;49.112;8.598;2023-09-08T05:11:11;19.40;72.40
46139;DHT22;32398;49.112;8.598;2023-09-08T05:13:39;19.30;72.40
46139;DHT22;32398;49.112;8.598;2023-09-08T05:16:06;19.30;72.50
46139;DHT22;32398;49.112;8.598;2023-09-08T05:18:37;19.30;72.50
46139;DHT22;32398;49.112;8.598;2023-09-08T05:21:04;19.30;72.60
46139;DHT22;32398;49.112;8.598;2023-09-08T05:23:31;19.20;72.60
46139;DHT22;32398;49.112;8.598;2023-09-08T05:25:59;19.20;72.70
46139;DHT22;32398;49.112;8.598;2023-09-08T05:28:26;19.20;72.70
46139;DHT22;32398;49.112;8.598;2023-09-08T05:30:53;19.20;72.80
46139;DHT22;32398;49.112;8.598;2023-09-08T05:33:20;19.20;72.80
46139;DHT22;32398;49.112;8.598;2023-09-08T05:35:46;19.20;72.90
46139;DHT22;32398;49.112;8.598;2023-09-08T05:38:13;19.10;73.00
46139;DHT22;32398;49.112;8.598;2023-09-08T05:40:40;19.10;73.00
46139;DHT22;32398;49.112;8.598;2023-09-08T05:43:08;19.10;73.10
46139;DHT22;32398;49.112;8.598;2023-09-08T05:45:35;19.10;73.10
46139;DHT22;32398;49.112;8.598;2023-09-08T05:48:02;19.10;73.20
46139;DHT22;32398;49.112;8.598;2023-09-08T05:50:28;19.10;73.30
46139;DHT22;32398;49.112;8.598;2023-09-08T05:52:55;19.10;73.30
46139;DHT22;32398;49.112;8.598;2023-09-08T05:55:22;19.10;73.40
46139;DHT22;32398;49.112;8.598;2023-09-08T05:57:48;19.10;73.50
46139;DHT22;32398;49.112;8.598;2023-09-08T06:00:17;19.00;73.50
46139;DHT22;32398;49.112;8.598;2023-09-08T06:02:45;19.00;73.60
46139;DHT22;32398;49.112;8.598;2023-09-08T06:05:11;19.00;73.60
46139;DHT22;32398;49.112;8.598;2023-09-08T06:07:39;19.00;73.70
46139;DHT22;32398;49.112;8.598;2023-09-08T06:10:06;18.90;73.70
46139;DHT22;32398;49.112;8.598;2023-09-08T06:12:33;18.90;73.80
46139;DHT22;32398;49.112;8.598;2023-09-08T06:15:00;18.80;76.40
46139;DHT22;32398;49.112;8.598;2023-09-08T06:17:29;18.70;77.00
46139;DHT22;32398;49.112;8.598;2023-09-08T06:19:56;18.70;77.30
46139;DHT22;32398;49.112;8.598;2023-09-08T06:22:23;18.60;77.20
46139;DHT22;32398;49.112;8.598;2023-09-08T06:24:49;18.60;77.10
46139;DHT22;32398;49.112;8.598;2023-09-08T06:27:16;18.60;76.90
46139;DHT22;32398;49.112;8.598;2023-09-08T06:29:43;18.60;76.70
46139;DHT22;32398;49.112;8.598;2023-09-08T06:32:10;18.60;76.60
46139;DHT22;32398;49.112;8.598;2023-09-08T06:34:40;18.60;76.50
46139;DHT22;32398;49.112;8.598;2023-09-08T06:37:08;18.60;76.40
46139;DHT22;32398;49.112;8.598;2023-09-08T06:39:35;18.60;76.40
46139;DHT22;32398;49.112;8.598;2023-09-08T06:42:09;18.60;76.30
46139;DHT22;32398;49.112;8.598;2023-09-08T06:44:35;18.60;76.30
46139;DHT22;32398;49.112;8.598;2023-09-08T06:47:02;18.60;76.30
46139;DHT22;32398;49.112;8.598;2023-09-08T06:49:32;18.60;76.20
46139;DHT22;32398;49.112;8.598;2023-09-08T06:52:00;18.60;76.30
46139;DHT22;32398;49.112;8.598;2023-09-08T06:54:27;18.60;76.30
46139;DHT22;32398;49.112;8.598;2023-09-08T06:56:53;18.60;76.40
46139;DHT22;32398;49.112;8.598;2023-09-08T06:59:20;18.60;77.00
46139;DHT22;32398;49.112;8.598;2023-09-08T07:01:47;18.60;77.20
46139;DHT22;32398;49.112;8.598;2023-09-08T07:04:13;18.60;77.30
46139;DHT22;32398;49.112;8.598;2023-09-08T07:06:40;18.60;77.30
46139;DHT22;32398;49.112;8.598;2023-09-08T07:09:10;18.60;77.30
46139;DHT22;32398;49.112;8.598;2023-09-08T07:11:39;18.60;77.30
46139;DHT22;32398;49.112;8.598;2023-09-08T07:14:06;18.60;77.20
46139;DHT22;32398;49.112;8.598;2023-09-08T07:16:33;18.60;77.20
46139;DHT22;32398;49.112;8.598;2023-09-08T07:19:01;18.60;77.20
46139;DHT22;32398;49.112;8.598;2023-09-08T07:21:28;18.60;77.20
46139;DHT22;32398;49.112;8.598;2023-09-08T07:23:55;18.60;77.20
46139;DHT22;32398;49.112;8.598;2023-09-08T07:26:23;18.60;77.10
46139;DHT22;32398;49.112;8.598;2023-09-08T07:28:50;18.60;77.10
46139;DHT22;32398;49.112;8.598;2023-09-08T07:31:16;18.60;77.10
46139;DHT22;32398;49.112;8.598;2023-09-08T07:33:43;18.70;77.20
46139;DHT22;32398;49.112;8.598;2023-09-08T07:36:10;18.70;77.20
46139;DHT22;32398;49.112;8.598;2023-09-08T07:38:39;18.60;77.10
46139;DHT22;32398;49.112;8.598;2023-09-08T07:41:05;18.70;77.20
46139;DHT22;32398;49.112;8.598;2023-09-08T07:43:33;18.70;77.20
46139;DHT22;32398;49.112;8.598;2023-09-08T07:46:05;18.70;77.20
46139;DHT22;32398;49.112;8.598;2023-09-08T07:48:32;18.70;77.20
46139;DHT22;32398;49.112;8.598;2023-09-08T07:50:58;18.70;77.20
46139;DHT22;32398;49.112;8.598;2023-09-08T07:53:26;18.70;77.30
46139;DHT22;32398;49.112;8.598;2023-09-08T07:55:52;18.70;77.30
46139;DHT22;32398;49.112;8.598;2023-09-08T07:58:19;18.70;77.30
46139;DHT22;32398;49.112;8.598;2023-09-08T08:00:47;18.80;77.30
46139;DHT22;32398;49.112;8.598;2023-09-08T08:03:14;18.80;77.30
46139;DHT22;32398;49.112;8.598;2023-09-08T08:05:40;18.80;77.30
46139;DHT22;32398;49.112;8.598;2023-09-08T08:08:07;18.80;77.40
46139;DHT22;32398;49.112;8.598;2023-09-08T08:10:42;18.90;77.40
46139;DHT22;32398;49.112;8.598;2023-09-08T08:13:09;18.90;77.40
46139;DHT22;32398;49.112;8.598;2023-09-08T08:15:38;18.90;77.40
46139;DHT22;32398;49.112;8.598;2023-09-08T08:18:08;18.90;77.50
46139;DHT22;32398;49.112;8.598;2023-09-08T08:20:36;18.90;77.40
46139;DHT22;32398;49.112;8.598;2023-09-08T08:23:06;19.00;77.30
46139;DHT22;32398;49.112;8.598;2023-09-08T08:25:34;19.00;77.20
46139;DHT22;32398;49.112;8.598;2023-09-08T08:28:00;19.10;77.80
46139;DHT22;32398;49.112;8.598;2023-09-08T08:30:28;19.10;77.90
46139;DHT22;32398;49.112;8.598;2023-09-08T08:32:54;19.10;77.70
46139;DHT22;32398;49.112;8.598;2023-09-08T08:35:23;19.20;77.40
46139;DHT22;32398;49.112;8.598;2023-09-08T08:37:50;19.20;77.40
46139;DHT22;32398;49.112;8.598;2023-09-08T08:40:16;19.30;77.70
46139;DHT22;32398;49.112;8.598;2023-09-08T08:42:43;19.40;78.10
46139;DHT22;32398;49.112;8.598;2023-09-08T08:45:10;19.40;77.80
46139;DHT22;32398;49.112;8.598;2023-09-08T08:47:37;19.50;77.60
46139;DHT22;32398;49.112;8.598;2023-09-08T08:50:05;19.50;77.40
46139;DHT22;32398;49.112;8.598;2023-09-08T08:52:37;19.60;77.40
46139;DHT22;32398;49.112;8.598;2023-09-08T08:55:04;19.70;77.70
46139;DHT22;32398;49.112;8.598;2023-09-08T08:57:31;19.70;77.30
46139;DHT22;32398;49.112;8.598;2023-09-08T08:59:58;19.80;77.00
46139;DHT22;32398;49.112;8.598;2023-09-08T09:02:25;19.80;77.10
46139;DHT22;32398;49.112;8.598;2023-09-08T09:04:54;19.90;76.80
46139;DHT22;32398;49.112;8.598;2023-09-08T09:07:21;19.90;76.50
46139;DHT22;32398;49.112;8.598;2023-09-08T09:09:49;20.00;76.40
46139;DHT22;32398;49.112;8.598;2023-09-08T09:12:16;20.10;76.20
46139;DHT22;32398;49.112;8.598;2023-09-08T09:14:46;20.10;76.00
46139;DHT22;32398;49.112;8.598;2023-09-08T09:17:14;20.20;75.90
46139;DHT22;32398;49.112;8.598;2023-09-08T09:19:41;20.30;76.50
46139;DHT22;32398;49.112;8.598;2023-09-08T09:22:07;20.30;76.40
46139;DHT22;32398;49.112;8.598;2023-09-08T09:24:35;20.40;76.20
46139;DHT22;32398;49.112;8.598;2023-09-08T09:29:46;20.50;75.70
46139;DHT22;32398;49.112;8.598;2023-09-08T09:32:13;20.60;75.50
46139;DHT22;32398;49.112;8.598;2023-09-08T09:34:51;20.70;75.30
46139;DHT22;32398;49.112;8.598;2023-09-08T09:37:18;20.70;75.10
46139;DHT22;32398;49.112;8.598;2023-09-08T09:39:48;20.90;75.20
46139;DHT22;32398;49.112;8.598;2023-09-08T09:42:14;20.90;75.00
46139;DHT22;32398;49.112;8.598;2023-09-08T09:44:41;21.00;74.90
46139;DHT22;32398;49.112;8.598;2023-09-08T09:47:09;21.00;74.80
46139;DHT22;32398;49.112;8.598;2023-09-08T09:49:41;21.10;74.60
46139;DHT22;32398;49.112;8.598;2023-09-08T09:52:08;21.20;74.50
46139;DHT22;32398;49.112;8.598;2023-09-08T09:54:35;21.20;74.10
46139;DHT22;32398;49.112;8.598;2023-09-08T09:57:01;21.30;73.90
46139;DHT22;32398;49.112;8.598;2023-09-08T09:59:28;21.40;73.70
46139;DHT22;32398;49.112;8.598;2023-09-08T10:01:55;21.40;73.60
46139;DHT22;32398;49.112;8.598;2023-09-08T10:04:23;21.50;73.70
46139;DHT22;32398;49.112;8.598;2023-09-08T10:06:50;21.60;73.50
46139;DHT22;32398;49.112;8.598;2023-09-08T10:09:17;21.70;73.60
46139;DHT22;32398;49.112;8.598;2023-09-08T10:11:46;21.70;74.20
46139;DHT22;32398;49.112;8.598;2023-09-08T10:14:13;21.80;73.60
46139;DHT22;32398;49.112;8.598;2023-09-08T10:16:41;21.80;73.30
46139;DHT22;32398;49.112;8.598;2023-09-08T10:19:10;21.90;73.30
46139;DHT22;32398;49.112;8.598;2023-09-08T10:21:39;22.00;73.20
46139;DHT22;32398;49.112;8.598;2023-09-08T10:24:08;22.10;73.40
46139;DHT22;32398;49.112;8.598;2023-09-08T10:26:37;22.10;73.30
46139;DHT22;32398;49.112;8.598;2023-09-08T10:29:06;22.20;73.10
46139;DHT22;32398;49.112;8.598;2023-09-08T10:31:33;22.30;72.90
46139;DHT22;32398;49.112;8.598;2023-09-08T10:34:00;22.30;72.60
46139;DHT22;32398;49.112;8.598;2023-09-08T10:36:27;22.40;72.50
46139;DHT22;32398;49.112;8.598;2023-09-08T10:38:55;22.50;72.50
46139;DHT22;32398;49.112;8.598;2023-09-08T10:41:42;22.50;73.30
46139;DHT22;32398;49.112;8.598;2023-09-08T10:44:10;22.60;72.30
46139;DHT22;32398;49.112;8.598;2023-09-08T10:46:42;22.70;72.00
46139;DHT22;32398;49.112;8.598;2023-09-08T10:49:10;22.70;71.90
46139;DHT22;32398;49.112;8.598;2023-09-08T10:51:37;22.80;72.00
46139;DHT22;32398;49.112;8.598;2023-09-08T10:54:06;22.80;71.80
46139;DHT22;32398;49.112;8.598;2023-09-08T10:56:53;23.00;71.60
46139;DHT22;32398;49.112;8.598;2023-09-08T10:59:21;23.00;71.40
46139;DHT22;32398;49.112;8.598;2023-09-08T11:01:48;23.10;71.40
46139;DHT22;32398;49.112;8.598;2023-09-08T11:04:14;23.20;71.40
46139;DHT22;32398;49.112;8.598;2023-09-08T11:06:44;23.20;71.10
46139;DHT22;32398;49.112;8.598;2023-09-08T11:09:12;23.30;70.80
46139;DHT22;32398;49.112;8.598;2023-09-08T11:11:39;23.40;70.90
46139;DHT22;32398;49.112;8.598;2023-09-08T11:14:06;23.50;70.80
46139;DHT22;32398;49.112;8.598;2023-09-08T11:16:32;23.50;70.50
46139;DHT22;32398;49.112;8.598;2023-09-08T11:19:00;23.60;70.20
46139;DHT22;32398;49.112;8.598;2023-09-08T11:21:29;23.60;70.10
46139;DHT22;32398;49.112;8.598;2023-09-08T11:24:00;23.80;70.10
46139;DHT22;32398;49.112;8.598;2023-09-08T11:26:29;23.80;69.90
46139;DHT22;32398;49.112;8.598;2023-09-08T11:28:55;23.90;70.10
46139;DHT22;32398;49.112;8.598;2023-09-08T11:31:23;23.90;69.90
46139;DHT22;32398;49.112;8.598;2023-09-08T11:33:49;24.00;69.60
46139;DHT22;32398;49.112;8.598;2023-09-08T11:36:21;24.00;69.70
46139;DHT22;32398;49.112;8.598;2023-09-08T11:38:47;24.10;69.60
46139;DHT22;32398;49.112;8.598;2023-09-08T11:41:14;24.10;69.20
46139;DHT22;32398;49.112;8.598;2023-09-08T11:43:42;24.20;69.20
46139;DHT22;32398;49.112;8.598;2023-09-08T11:46:10;24.30;69.10
46139;DHT22;32398;49.112;8.598;2023-09-08T11:48:40;24.40;68.80
46139;DHT22;32398;49.112;8.598;2023-09-08T11:51:07;24.40;68.90
46139;DHT22;32398;49.112;8.598;2023-09-08T11:53:34;24.50;68.80
46139;DHT22;32398;49.112;8.598;2023-09-08T11:56:02;24.50;68.60
46139;DHT22;32398;49.112;8.598;2023-09-08T11:58:29;24.70;68.60
46139;DHT22;32398;49.112;8.598;2023-09-08T12:00:57;24.70;68.50
46139;DHT22;32398;49.112;8.598;2023-09-08T12:03:24;24.80;68.20
46139;DHT22;32398;49.112;8.598;2023-09-08T12:05:51;24.80;68.00
46139;DHT22;32398;49.112;8.598;2023-09-08T12:08:18;24.90;67.90
46139;DHT22;32398;49.112;8.598;2023-09-08T12:10:44;24.90;67.80
46139;DHT22;32398;49.112;8.598;2023-09-08T12:13:11;25.00;67.70
46139;DHT22;32398;49.112;8.598;2023-09-08T12:15:39;25.10;67.30
46139;DHT22;32398;49.112;8.598;2023-09-08T12:18:09;25.10;67.10
46139;DHT22;32398;49.112;8.598;2023-09-08T12:20:38;25.20;66.80
46139;DHT22;32398;49.112;8.598;2023-09-08T12:23:05;25.30;66.90
46139;DHT22;32398;49.112;8.598;2023-09-08T12:25:43;25.30;66.70
46139;DHT22;32398;49.112;8.598;2023-09-08T12:28:10;25.40;66.50
46139;DHT22;32398;49.112;8.598;2023-09-08T12:30:37;25.40;66.20
46139;DHT22;32398;49.112;8.598;2023-09-08T12:33:05;25.50;66.30
46139;DHT22;32398;49.112;8.598;2023-09-08T12:35:33;25.60;66.20
46139;DHT22;32398;49.112;8.598;2023-09-08T12:38:00;25.60;66.00
46139;DHT22;32398;49.112;8.598;2023-09-08T12:40:27;25.60;65.60
46139;DHT22;32398;49.112;8.598;2023-09-08T12:42:54;25.70;65.60
46139;DHT22;32398;49.112;8.598;2023-09-08T12:45:21;25.80;65.50
46139;DHT22;32398;49.112;8.598;2023-09-08T12:47:48;25.80;65.40
46139;DHT22;32398;49.112;8.598;2023-09-08T12:50:15;25.90;65.30
46139;DHT22;32398;49.112;8.598;2023-09-08T12:52:43;26.00;65.20
46139;DHT22;32398;49.112;8.598;2023-09-08T12:55:09;26.00;65.00
46139;DHT22;32398;49.112;8.598;2023-09-08T12:57:36;26.00;64.60
46139;DHT22;32398;49.112;8.598;2023-09-08T13:00:03;26.10;63.90
46139;DHT22;32398;49.112;8.598;2023-09-08T13:02:30;26.20;64.00
46139;DHT22;32398;49.112;8.598;2023-09-08T13:04:59;26.20;64.00
46139;DHT22;32398;49.112;8.598;2023-09-08T13:07:28;26.30;63.90
46139;DHT22;32398;49.112;8.598;2023-09-08T13:09:58;26.30;64.00
46139;DHT22;32398;49.112;8.598;2023-09-08T13:12:25;26.30;63.40
46139;DHT22;32398;49.112;8.598;2023-09-08T13:14:52;26.40;63.30
46139;DHT22;32398;49.112;8.598;2023-09-08T13:17:26;26.50;63.70
46139;DHT22;32398;49.112;8.598;2023-09-08T13:19:53;26.50;63.50
46139;DHT22;32398;49.112;8.598;2023-09-08T13:22:21;26.50;63.40
46139;DHT22;32398;49.112;8.598;2023-09-08T13:24:48;26.60;63.60
46139;DHT22;32398;49.112;8.598;2023-09-08T13:27:17;26.70;63.50
46139;DHT22;32398;49.112;8.598;2023-09-08T13:29:44;26.70;63.30
46139;DHT22;32398;49.112;8.598;2023-09-08T13:32:11;26.70;61.70
46139;DHT22;32398;49.112;8.598;2023-09-08T13:34:37;26.80;62.30
46139;DHT22;32398;49.112;8.598;2023-09-08T13:37:04;26.80;61.50
46139;DHT22;32398;49.112;8.598;2023-09-08T13:39:31;26.90;62.50
46139;DHT22;32398;49.112;8.598;2023-09-08T13:41:59;26.90;62.50
46139;DHT22;32398;49.112;8.598;2023-09-08T13:44:27;27.00;62.50
46139;DHT22;32398;49.112;8.598;2023-09-08T13:47:01;27.10;61.90
46139;DHT22;32398;49.112;8.598;2023-09-08T13:49:30;27.10;61.80
46139;DHT22;32398;49.112;8.598;2023-09-08T13:51:56;27.20;61.80
46139;DHT22;32398;49.112;8.598;2023-09-08T13:54:23;27.20;61.60
46139;DHT22;32398;49.112;8.598;2023-09-08T13:56:57;27.30;61.60
46139;DHT22;32398;49.112;8.598;2023-09-08T13:59:28;27.40;61.60
46139;DHT22;32398;49.112;8.598;2023-09-08T14:01:55;27.40;61.20
46139;DHT22;32398;49.112;8.598;2023-09-08T14:04:24;27.50;60.40
46139;DHT22;32398;49.112;8.598;2023-09-08T14:06:51;27.60;60.80
46139;DHT22;32398;49.112;8.598;2023-09-08T14:09:17;27.60;60.20
46139;DHT22;32398;49.112;8.598;2023-09-08T14:11:46;27.60;60.50
46139;DHT22;32398;49.112;8.598;2023-09-08T14:14:12;27.70;60.40
46139;DHT22;32398;49.112;8.598;2023-09-08T14:16:40;27.70;60.30
46139;DHT22;32398;49.112;8.598;2023-09-08T14:19:07;27.80;60.20
46139;DHT22;32398;49.112;8.598;2023-09-08T14:21:34;27.80;59.20
46139;DHT22;32398;49.112;8.598;2023-09-08T14:24:05;27.90;59.70
46139;DHT22;32398;49.112;8.598;2023-09-08T14:26:32;27.90;59.60
46139;DHT22;32398;49.112;8.598;2023-09-08T14:29:00;28.00;59.30
46139;DHT22;32398;49.112;8.598;2023-09-08T14:31:26;28.10;59.00
46139;DHT22;32398;49.112;8.598;2023-09-08T14:33:54;28.10;59.10
46139;DHT22;32398;49.112;8.598;2023-09-08T14:36:29;28.10;59.10
46139;DHT22;32398;49.112;8.598;2023-09-08T14:38:56;28.20;58.90
46139;DHT22;32398;49.112;8.598;2023-09-08T14:41:22;28.20;58.70
46139;DHT22;32398;49.112;8.598;2023-09-08T14:43:49;28.30;58.80
46139;DHT22;32398;49.112;8.598;2023-09-08T14:46:16;28.30;58.80
46139;DHT22;32398;49.112;8.598;2023-09-08T14:48:42;28.40;58.90
46139;DHT22;32398;49.112;8.598;2023-09-08T14:51:11;28.30;58.70
46139;DHT22;32398;49.112;8.598;2023-09-08T14:53:37;28.30;57.90
46139;DHT22;32398;49.112;8.598;2023-09-08T14:56:05;28.40;57.80
46139;DHT22;32398;49.112;8.598;2023-09-08T14:58:34;28.40;58.10
46139;DHT22;32398;49.112;8.598;2023-09-08T15:01:02;28.40;58.20
46139;DHT22;32398;49.112;8.598;2023-09-08T15:03:33;28.40;58.40
46139;DHT22;32398;49.112;8.598;2023-09-08T15:06:00;28.40;58.40
46139;DHT22;32398;49.112;8.598;2023-09-08T15:08:28;28.40;58.60
46139;DHT22;32398;49.112;8.598;2023-09-08T15:10:54;28.40;58.60
46139;DHT22;32398;49.112;8.598;2023-09-08T15:13:21;28.40;58.60
46139;DHT22;32398;49.112;8.598;2023-09-08T15:15:50;28.40;58.20
46139;DHT22;32398;49.112;8.598;2023-09-08T15:18:17;28.40;58.70
46139;DHT22;32398;49.112;8.598;2023-09-08T15:20:51;28.40;58.70
46139;DHT22;32398;49.112;8.598;2023-09-08T15:23:18;28.40;58.80
46139;DHT22;32398;49.112;8.598;2023-09-08T15:25:51;28.40;58.80
46139;DHT22;32398;49.112;8.598;2023-09-08T15:28:18;28.40;58.70
46139;DHT22;32398;49.112;8.598;2023-09-08T15:30:48;28.30;58.70
46139;DHT22;32398;49.112;8.598;2023-09-08T15:33:15;28.30;58.70
46139;DHT22;32398;49.112;8.598;2023-09-08T15:35:42;28.30;58.60
46139;DHT22;32398;49.112;8.598;2023-09-08T15:38:11;28.30;58.50
46139;DHT22;32398;49.112;8.598;2023-09-08T15:40:38;28.30;58.40